createdAt,value
2022-12-19T00:00:13.971Z, 28.16
2022-12-19T00:01:12.398Z, 28.13
2022-12-19T00:02:12.538Z, 28.09
2022-12-19T00:03:12.534Z, 28.11
2022-12-19T00:04:12.404Z, 28.10
2022-12-19T00:05:12.436Z, 28.11
2022-12-19T00:06:12.429Z, 28.09
2022-12-19T00:07:12.424Z, 28.07
2022-12-19T00:08:17.407Z, 28.07
2022-12-19T00:09:12.436Z, 28.03
2022-12-19T00:10:30.211Z, 28.00
2022-12-19T00:11:12.462Z, 27.99
2022-12-19T00:12:17.433Z, 27.97
2022-12-19T00:13:12.481Z, 27.98
2022-12-19T00:14:12.497Z, 27.97
2022-12-19T00:15:12.507Z, 27.95
2022-12-19T00:16:12.557Z, 27.97
2022-12-19T00:17:12.590Z, 27.97
2022-12-19T00:18:12.605Z, 27.96
2022-12-19T00:19:12.588Z, 27.94
2022-12-19T00:20:12.597Z, 27.91
2022-12-19T00:21:12.587Z, 27.88
2022-12-19T00:22:12.593Z, 27.88
2022-12-19T00:23:12.589Z, 27.90
2022-12-19T00:24:20.597Z, 27.88
2022-12-19T00:25:12.650Z, 27.86
2022-12-19T00:26:12.671Z, 27.84
2022-12-19T00:27:12.672Z, 27.83
2022-12-19T00:28:12.657Z, 27.81
2022-12-19T00:29:14.214Z, 27.79
2022-12-19T00:30:12.684Z, 27.80
2022-12-19T00:31:12.724Z, 27.77
2022-12-19T00:32:12.693Z, 27.78
2022-12-19T00:33:12.707Z, 27.79
2022-12-19T00:34:12.727Z, 27.75
2022-12-19T00:35:12.793Z, 27.75
2022-12-19T00:36:12.772Z, 27.73
2022-12-19T00:37:12.818Z, 27.71
2022-12-19T00:38:12.799Z, 27.70
2022-12-19T00:39:12.870Z, 27.69
2022-12-19T00:40:12.836Z, 27.68
2022-12-19T00:41:12.856Z, 27.66
2022-12-19T00:42:12.855Z, 27.63
2022-12-19T00:43:12.892Z, 27.61
2022-12-19T00:44:12.863Z, 27.61
2022-12-19T00:45:12.908Z, 27.61
2022-12-19T00:46:12.980Z, 27.58
2022-12-19T00:47:12.900Z, 27.57
2022-12-19T00:48:12.919Z, 27.58
2022-12-19T00:49:12.905Z, 27.58
2022-12-19T00:50:12.977Z, 27.56
2022-12-19T00:51:12.968Z, 27.56
2022-12-19T00:52:13.012Z, 27.55
2022-12-19T00:53:12.983Z, 27.53
2022-12-19T00:54:13.024Z, 27.50
2022-12-19T00:55:18.959Z, 27.49
2022-12-19T00:56:13.059Z, 27.49
2022-12-19T00:57:13.047Z, 27.47
2022-12-19T00:58:13.091Z, 27.47
2022-12-19T00:59:13.071Z, 27.47
2022-12-19T01:00:13.101Z, 27.46
2022-12-19T01:01:13.144Z, 27.46
2022-12-19T01:02:13.224Z, 27.41
2022-12-19T01:03:13.175Z, 27.38
2022-12-19T01:04:29.593Z, 27.39
2022-12-19T01:05:13.100Z, 27.39
2022-12-19T01:06:13.099Z, 27.38
2022-12-19T01:07:13.115Z, 27.34
2022-12-19T01:08:13.121Z, 27.37
2022-12-19T01:09:13.197Z, 27.37
2022-12-19T01:10:13.179Z, 27.36
2022-12-19T01:11:13.182Z, 27.33
2022-12-19T01:12:13.180Z, 27.35
2022-12-19T01:13:13.187Z, 27.38
2022-12-19T01:14:19.029Z, 27.33
2022-12-19T01:15:13.268Z, 27.31
2022-12-19T01:16:13.320Z, 27.31
2022-12-19T01:17:13.252Z, 27.29
2022-12-19T01:18:13.266Z, 27.25
2022-12-19T01:19:13.279Z, 27.26
2022-12-19T01:20:13.284Z, 27.25
2022-12-19T01:21:13.355Z, 27.25
2022-12-19T01:22:13.418Z, 27.24
2022-12-19T01:23:13.367Z, 27.20
2022-12-19T01:24:13.770Z, 27.20
2022-12-19T01:25:13.368Z, 27.17
2022-12-19T01:26:13.363Z, 27.12
2022-12-19T01:27:13.377Z, 27.11
2022-12-19T01:28:13.478Z, 27.10
2022-12-19T01:29:13.449Z, 27.09
2022-12-19T01:30:13.457Z, 27.10
2022-12-19T01:31:13.543Z, 27.09
2022-12-19T01:32:13.446Z, 27.07
2022-12-19T01:33:13.488Z, 27.06
2022-12-19T01:34:13.450Z, 27.05
2022-12-19T01:35:20.638Z, 27.05
2022-12-19T01:36:13.492Z, 27.04
2022-12-19T01:37:13.548Z, 27.01
2022-12-19T01:38:13.522Z, 27.02
2022-12-19T01:39:13.576Z, 27.01
2022-12-19T01:40:13.569Z, 27.03
2022-12-19T01:41:13.597Z, 27.01
2022-12-19T01:42:13.562Z, 27.02
2022-12-19T01:43:13.605Z, 27.03
2022-12-19T01:44:13.643Z, 27.04
2022-12-19T01:45:14.204Z, 27.07
2022-12-19T01:46:13.721Z, 27.10
2022-12-19T01:47:13.661Z, 27.10
2022-12-19T01:48:13.653Z, 27.10
2022-12-19T01:49:13.684Z, 27.10
2022-12-19T01:50:13.659Z, 27.07
2022-12-19T01:51:13.719Z, 27.06
2022-12-19T01:52:23.518Z, 27.05
2022-12-19T01:53:13.729Z, 27.05
2022-12-19T01:54:13.718Z, 27.03
2022-12-19T01:55:13.767Z, 26.98
2022-12-19T01:56:13.711Z, 26.96
2022-12-19T01:57:13.764Z, 26.96
2022-12-19T01:58:13.749Z, 26.96
2022-12-19T01:59:13.791Z, 26.97
2022-12-19T02:00:13.779Z, 26.94
2022-12-19T02:01:13.822Z, 26.93
2022-12-19T02:02:13.877Z, 26.92
2022-12-19T02:03:13.791Z, 26.90
2022-12-19T02:04:13.845Z, 26.88
2022-12-19T02:05:13.838Z, 26.86
2022-12-19T02:06:13.911Z, 26.87
2022-12-19T02:07:16.230Z, 26.88
2022-12-19T02:08:13.924Z, 26.87
2022-12-19T02:09:13.929Z, 26.85
2022-12-19T02:10:13.883Z, 26.82
2022-12-19T02:11:13.964Z, 26.81
2022-12-19T02:12:13.974Z, 26.82
2022-12-19T02:13:13.984Z, 26.83
2022-12-19T02:14:13.957Z, 26.86
2022-12-19T02:15:13.944Z, 26.86
2022-12-19T02:16:14.074Z, 26.87
2022-12-19T02:17:13.991Z, 26.85
2022-12-19T02:18:13.981Z, 26.84
2022-12-19T02:19:13.993Z, 26.80
2022-12-19T02:20:13.979Z, 26.78
2022-12-19T02:21:14.000Z, 26.76
2022-12-19T02:22:18.845Z, 26.75
2022-12-19T02:23:14.059Z, 26.75
2022-12-19T02:24:14.053Z, 26.72
2022-12-19T02:25:14.115Z, 26.71
2022-12-19T02:26:14.111Z, 26.68
2022-12-19T02:27:14.170Z, 26.66
2022-12-19T02:28:14.158Z, 26.64
2022-12-19T02:29:14.160Z, 26.63
2022-12-19T02:30:14.155Z, 26.63
2022-12-19T02:31:17.545Z, 26.64
2022-12-19T02:32:14.181Z, 26.64
2022-12-19T02:33:14.177Z, 26.63
2022-12-19T02:34:14.190Z, 26.59
2022-12-19T02:35:14.203Z, 26.55
2022-12-19T02:36:14.209Z, 26.53
2022-12-19T02:37:14.234Z, 26.50
2022-12-19T02:38:14.319Z, 26.47
2022-12-19T02:39:14.302Z, 26.47
2022-12-19T02:40:14.292Z, 26.46
2022-12-19T02:41:14.296Z, 26.45
2022-12-19T02:42:14.299Z, 26.44
2022-12-19T02:43:14.359Z, 26.45
2022-12-19T02:44:14.362Z, 26.44
2022-12-19T02:45:19.206Z, 26.44
2022-12-19T02:46:14.432Z, 26.43
2022-12-19T02:47:14.391Z, 26.41
2022-12-19T02:48:18.879Z, 26.38
2022-12-19T02:49:15.650Z, 26.38
2022-12-19T02:50:14.388Z, 26.40
2022-12-19T02:51:14.390Z, 26.36
2022-12-19T02:52:14.479Z, 26.35
2022-12-19T02:53:14.461Z, 26.35
2022-12-19T02:54:14.469Z, 26.37
2022-12-19T02:55:14.471Z, 26.38
2022-12-19T02:56:14.496Z, 26.40
2022-12-19T02:57:14.478Z, 26.39
2022-12-19T02:58:14.559Z, 26.40
2022-12-19T02:59:14.557Z, 26.36
2022-12-19T03:00:14.562Z, 26.33
2022-12-19T03:01:14.597Z, 26.34
2022-12-19T03:02:14.730Z, 26.35
2022-12-19T03:03:14.633Z, 26.33
2022-12-19T03:04:14.582Z, 26.31
2022-12-19T03:05:14.656Z, 26.33
2022-12-19T03:06:14.633Z, 26.33
2022-12-19T03:07:14.658Z, 26.33
2022-12-19T03:08:14.651Z, 26.33
2022-12-19T03:09:14.705Z, 26.34
2022-12-19T03:10:14.703Z, 26.34
2022-12-19T03:11:14.738Z, 26.33
2022-12-19T03:12:17.530Z, 26.31
2022-12-19T03:13:14.721Z, 26.26
2022-12-19T03:14:14.714Z, 26.25
2022-12-19T03:15:14.711Z, 26.25
2022-12-19T03:16:14.848Z, 26.25
2022-12-19T03:17:14.784Z, 26.22
2022-12-19T03:18:14.829Z, 26.21
2022-12-19T03:19:14.831Z, 26.23
2022-12-19T03:20:14.834Z, 26.23
2022-12-19T03:21:14.827Z, 26.23
2022-12-19T03:22:14.868Z, 26.25
2022-12-19T03:23:14.859Z, 26.25
2022-12-19T03:24:14.892Z, 26.24
2022-12-19T03:25:14.879Z, 26.22
2022-12-19T03:26:14.872Z, 26.18
2022-12-19T03:27:14.934Z, 26.16
2022-12-19T03:28:14.923Z, 26.13
2022-12-19T03:29:14.922Z, 26.12
2022-12-19T03:30:14.954Z, 26.12
2022-12-19T03:31:15.026Z, 26.09
2022-12-19T03:32:14.988Z, 26.06
2022-12-19T03:33:14.968Z, 26.03
2022-12-19T03:34:15.018Z, 26.01
2022-12-19T03:35:14.988Z, 26.01
2022-12-19T03:36:15.008Z, 26.02
2022-12-19T03:37:15.011Z, 26.05
2022-12-19T03:38:15.023Z, 26.05
2022-12-19T03:39:15.014Z, 26.05
2022-12-19T03:40:15.004Z, 26.05
2022-12-19T03:41:15.074Z, 26.03
2022-12-19T03:42:15.071Z, 26.02
2022-12-19T03:43:15.082Z, 26.00
2022-12-19T03:44:15.075Z, 26.00
2022-12-19T03:45:15.079Z, 25.98
2022-12-19T03:46:15.151Z, 25.97
2022-12-19T03:47:15.142Z, 25.97
2022-12-19T03:48:15.131Z, 25.98
2022-12-19T03:49:15.159Z, 25.99
2022-12-19T03:50:15.164Z, 26.00
2022-12-19T03:51:15.156Z, 25.98
2022-12-19T03:52:15.157Z, 25.94
2022-12-19T03:53:15.188Z, 25.91
2022-12-19T03:54:15.192Z, 25.91
2022-12-19T03:55:15.198Z, 25.90
2022-12-19T03:56:15.204Z, 25.86
2022-12-19T03:57:15.226Z, 25.85
2022-12-19T03:58:15.488Z, 25.84
2022-12-19T03:59:15.291Z, 25.81
2022-12-19T04:00:15.337Z, 25.80
2022-12-19T04:01:15.406Z, 25.78
2022-12-19T04:02:15.414Z, 25.77
2022-12-19T04:03:15.390Z, 25.74
2022-12-19T04:04:15.323Z, 25.74
2022-12-19T04:05:15.390Z, 25.75
2022-12-19T04:06:15.376Z, 25.76
2022-12-19T04:07:15.465Z, 25.73
2022-12-19T04:08:15.438Z, 25.77
2022-12-19T04:09:20.744Z, 25.77
2022-12-19T04:10:15.447Z, 25.73
2022-12-19T04:11:15.430Z, 25.71
2022-12-19T04:12:15.450Z, 25.69
2022-12-19T04:13:15.494Z, 25.70
2022-12-19T04:14:15.493Z, 25.72
2022-12-19T04:15:15.472Z, 25.72
2022-12-19T04:16:15.670Z, 25.71
2022-12-19T04:17:15.525Z, 25.69
2022-12-19T04:18:15.554Z, 25.67
2022-12-19T04:19:15.533Z, 25.68
2022-12-19T04:20:15.534Z, 25.69
2022-12-19T04:21:15.530Z, 25.69
2022-12-19T04:22:15.530Z, 25.69
2022-12-19T04:23:15.543Z, 25.71
2022-12-19T04:24:15.551Z, 25.70
2022-12-19T04:25:15.628Z, 25.69
2022-12-19T04:26:15.617Z, 25.69
2022-12-19T04:27:15.643Z, 25.68
2022-12-19T04:28:15.626Z, 25.67
2022-12-19T04:29:15.652Z, 25.66
2022-12-19T04:30:15.631Z, 25.63
2022-12-19T04:31:15.757Z, 25.82
2022-12-19T04:32:15.666Z, 26.78
2022-12-19T04:33:15.678Z, 28.65
2022-12-19T04:34:15.692Z, 34.50
2022-12-19T04:35:15.694Z, 39.35
2022-12-19T04:36:15.773Z, 43.58
2022-12-19T04:37:15.767Z, 44.83
2022-12-19T04:38:15.817Z, 42.27
2022-12-19T04:39:15.773Z, 38.06
2022-12-19T04:40:15.847Z, 34.14
2022-12-19T04:41:15.812Z, 30.12
2022-12-19T04:42:15.861Z, 26.22
2022-12-19T04:43:15.847Z, 24.12
2022-12-19T04:44:15.858Z, 27.35
2022-12-19T04:45:15.880Z, 31.34
2022-12-19T04:46:15.906Z, 34.35
2022-12-19T04:47:15.871Z, 36.32
2022-12-19T04:48:15.862Z, 37.82
2022-12-19T04:49:15.941Z, 38.91
2022-12-19T04:50:15.910Z, 39.90
2022-12-19T04:51:15.944Z, 40.80
2022-12-19T04:52:15.935Z, 41.50
2022-12-19T04:53:15.984Z, 42.07
2022-12-19T04:54:15.971Z, 42.74
2022-12-19T04:55:15.963Z, 43.19
2022-12-19T04:56:15.958Z, 43.75
2022-12-19T04:57:15.989Z, 44.39
2022-12-19T04:58:21.456Z, 45.11
2022-12-19T04:59:16.013Z, 45.69
2022-12-19T05:00:16.083Z, 46.37
2022-12-19T05:01:16.120Z, 47.31
2022-12-19T05:02:16.357Z, 49.44
2022-12-19T05:03:16.209Z, 50.42
2022-12-19T05:04:16.112Z, 51.34
2022-12-19T05:05:16.151Z, 53.52
2022-12-19T05:06:16.122Z, 56.41
2022-12-19T05:07:16.119Z, 59.61
2022-12-19T05:08:16.193Z, 67.98
2022-12-19T05:09:16.199Z, 56.91
2022-12-19T05:10:16.209Z, 52.46
2022-12-19T05:11:19.772Z, 53.73
2022-12-19T05:12:16.238Z, 54.88
2022-12-19T05:13:16.233Z, 57.19
2022-12-19T05:14:16.215Z, 60.61
2022-12-19T05:15:16.207Z, 68.03
2022-12-19T05:16:16.337Z, 54.78
2022-12-19T05:17:16.226Z, 53.67
2022-12-19T05:18:16.243Z, 54.75
2022-12-19T05:19:16.305Z, 56.10
2022-12-19T05:20:16.305Z, 59.08
2022-12-19T05:21:16.307Z, 61.83
2022-12-19T05:22:16.309Z, 60.91
2022-12-19T05:23:17.006Z, 52.94
2022-12-19T05:24:16.388Z, 55.02
2022-12-19T05:25:16.368Z, 51.85
2022-12-19T05:26:16.404Z, 46.18
2022-12-19T05:27:16.392Z, 44.86
2022-12-19T05:28:16.418Z, 49.46
2022-12-19T05:29:16.404Z, 54.19
2022-12-19T05:30:16.466Z, 57.45
2022-12-19T05:31:16.519Z, 59.31
2022-12-19T05:32:16.469Z, 58.80
2022-12-19T05:33:16.467Z, 56.93
2022-12-19T05:34:16.472Z, 54.94
2022-12-19T05:35:16.511Z, 52.96
2022-12-19T05:36:16.477Z, 51.13
2022-12-19T05:37:16.559Z, 49.65
2022-12-19T05:38:16.516Z, 48.35
2022-12-19T05:39:16.545Z, 46.77
2022-12-19T05:40:16.541Z, 44.85
2022-12-19T05:41:16.558Z, 44.77
2022-12-19T05:42:16.552Z, 48.44
2022-12-19T05:43:16.551Z, 51.63
2022-12-19T05:44:16.549Z, 54.23
2022-12-19T05:45:16.578Z, 56.73
2022-12-19T05:46:16.661Z, 58.60
2022-12-19T05:47:16.640Z, 59.62
2022-12-19T05:48:16.663Z, 59.40
2022-12-19T05:49:16.668Z, 58.52
2022-12-19T05:50:16.692Z, 57.43
2022-12-19T05:51:16.675Z, 56.45
2022-12-19T05:52:16.727Z, 55.43
2022-12-19T05:53:18.114Z, 54.37
2022-12-19T05:54:16.715Z, 53.24
2022-12-19T05:55:16.710Z, 52.26
2022-12-19T05:56:16.719Z, 51.29
2022-12-19T05:57:16.796Z, 50.44
2022-12-19T05:58:16.733Z, 49.49
2022-12-19T05:59:16.812Z, 48.54
2022-12-19T06:00:16.790Z, 47.64
2022-12-19T06:01:16.913Z, 48.09
2022-12-19T06:02:16.886Z, 53.23
2022-12-19T06:03:16.996Z, 57.97
2022-12-19T06:04:16.842Z, 59.64
2022-12-19T06:05:16.841Z, 58.35
2022-12-19T06:06:16.845Z, 57.10
2022-12-19T06:07:20.903Z, 56.14
2022-12-19T06:08:16.843Z, 55.27
2022-12-19T06:09:16.852Z, 54.34
2022-12-19T06:10:16.872Z, 53.52
2022-12-19T06:11:16.870Z, 52.65
2022-12-19T06:12:16.949Z, 51.77
2022-12-19T06:13:22.113Z, 50.89
2022-12-19T06:14:16.983Z, 50.05
2022-12-19T06:15:16.964Z, 49.27
2022-12-19T06:16:17.036Z, 48.73
2022-12-19T06:17:16.987Z, 48.53
2022-12-19T06:18:16.977Z, 48.22
2022-12-19T06:19:17.033Z, 47.95
2022-12-19T06:20:16.985Z, 47.72
2022-12-19T06:21:17.074Z, 47.49
2022-12-19T06:22:17.042Z, 47.29
2022-12-19T06:23:17.097Z, 47.06
2022-12-19T06:24:17.065Z, 46.87
2022-12-19T06:25:17.109Z, 46.68
2022-12-19T06:26:19.475Z, 46.50
2022-12-19T06:27:17.113Z, 46.35
2022-12-19T06:28:17.135Z, 46.18
2022-12-19T06:29:17.105Z, 46.03
2022-12-19T06:30:17.119Z, 45.83
2022-12-19T06:31:17.168Z, 45.67
2022-12-19T06:32:17.154Z, 45.49
2022-12-19T06:33:17.134Z, 45.35
2022-12-19T06:34:39.399Z, 45.16
2022-12-19T06:35:17.219Z, 45.03
2022-12-19T06:36:17.231Z, 44.87
2022-12-19T06:37:17.267Z, 44.77
2022-12-19T06:38:17.209Z, 44.61
2022-12-19T06:39:17.276Z, 44.47
2022-12-19T06:40:17.256Z, 44.35
2022-12-19T06:41:17.260Z, 44.19
2022-12-19T06:42:17.276Z, 44.10
2022-12-19T06:43:17.264Z, 43.95
2022-12-19T06:44:17.298Z, 43.80
2022-12-19T06:45:17.296Z, 43.69
2022-12-19T06:46:17.394Z, 43.56
2022-12-19T06:47:17.325Z, 43.44
2022-12-19T06:48:17.395Z, 43.38
2022-12-19T06:49:17.414Z, 43.22
2022-12-19T06:50:17.386Z, 43.11
2022-12-19T06:51:17.381Z, 42.99
2022-12-19T06:52:17.438Z, 42.90
2022-12-19T06:53:17.424Z, 42.74
2022-12-19T06:54:17.428Z, 42.63
2022-12-19T06:55:17.430Z, 42.50
2022-12-19T06:56:17.454Z, 42.44
2022-12-19T06:57:17.506Z, 42.31
2022-12-19T06:58:22.720Z, 42.23
2022-12-19T06:59:17.476Z, 42.19
2022-12-19T07:00:17.513Z, 42.08
2022-12-19T07:01:17.660Z, 42.01
2022-12-19T07:02:17.625Z, 41.93
2022-12-19T07:03:17.560Z, 41.83
2022-12-19T07:04:17.593Z, 41.72
2022-12-19T07:05:17.566Z, 41.64
2022-12-19T07:06:17.618Z, 41.55
2022-12-19T07:07:17.602Z, 41.49
2022-12-19T07:08:17.643Z, 41.47
2022-12-19T07:09:17.638Z, 41.36
2022-12-19T07:10:17.683Z, 41.27
2022-12-19T07:11:17.626Z, 41.25
2022-12-19T07:12:17.670Z, 41.18
2022-12-19T07:13:17.658Z, 41.08
2022-12-19T07:14:17.659Z, 40.99
2022-12-19T07:15:17.715Z, 40.94
2022-12-19T07:16:17.751Z, 40.87
2022-12-19T07:17:17.728Z, 40.75
2022-12-19T07:18:17.722Z, 40.64
2022-12-19T07:19:17.720Z, 40.61
2022-12-19T07:20:17.756Z, 40.59
2022-12-19T07:21:17.716Z, 40.49
2022-12-19T07:22:17.787Z, 40.47
2022-12-19T07:23:17.790Z, 40.43
2022-12-19T07:24:17.788Z, 40.39
2022-12-19T07:25:17.781Z, 40.27
2022-12-19T07:26:17.801Z, 40.22
2022-12-19T07:27:17.805Z, 40.16
2022-12-19T07:28:17.820Z, 40.07
2022-12-19T07:29:17.907Z, 39.99
2022-12-19T07:30:17.889Z, 39.99
2022-12-19T07:31:17.986Z, 39.95
2022-12-19T07:32:17.924Z, 39.86
2022-12-19T07:33:21.427Z, 39.82
2022-12-19T07:34:17.940Z, 39.74
2022-12-19T07:35:17.945Z, 39.74
2022-12-19T07:36:17.934Z, 39.68
2022-12-19T07:37:17.933Z, 39.66
2022-12-19T07:38:18.002Z, 39.58
2022-12-19T07:39:17.999Z, 39.58
2022-12-19T07:40:18.048Z, 39.55
2022-12-19T07:41:18.042Z, 39.52
2022-12-19T07:42:18.040Z, 39.50
2022-12-19T07:43:18.029Z, 39.37
2022-12-19T07:44:18.057Z, 39.26
2022-12-19T07:45:18.046Z, 39.33
2022-12-19T07:46:18.143Z, 39.22
2022-12-19T07:47:18.069Z, 39.22
2022-12-19T07:48:18.073Z, 39.18
2022-12-19T07:49:22.425Z, 39.09
2022-12-19T07:50:18.129Z, 39.02
2022-12-19T07:51:18.137Z, 38.98
2022-12-19T07:52:18.127Z, 38.93
2022-12-19T07:53:18.189Z, 38.90
2022-12-19T07:54:18.166Z, 38.94
2022-12-19T07:55:18.226Z, 38.89
2022-12-19T07:56:18.209Z, 38.82
2022-12-19T07:57:18.204Z, 38.76
2022-12-19T07:58:18.212Z, 38.77
2022-12-19T07:59:18.208Z, 38.74
2022-12-19T08:00:18.280Z, 38.63
2022-12-19T08:01:18.384Z, 38.58
2022-12-19T08:02:18.487Z, 38.58
2022-12-19T08:03:18.387Z, 38.50
2022-12-19T08:04:18.305Z, 38.46
2022-12-19T08:05:18.310Z, 38.48
2022-12-19T08:06:18.309Z, 38.47
2022-12-19T08:07:18.313Z, 38.42
2022-12-19T08:08:18.323Z, 38.38
2022-12-19T08:09:18.313Z, 38.36
2022-12-19T08:10:18.321Z, 38.31
2022-12-19T08:11:18.407Z, 38.24
2022-12-19T08:12:18.371Z, 38.21
2022-12-19T08:13:18.449Z, 38.18
2022-12-19T08:14:18.422Z, 38.15
2022-12-19T08:15:18.457Z, 38.14
2022-12-19T08:16:18.471Z, 38.07
2022-12-19T08:17:20.947Z, 38.03
2022-12-19T08:18:18.469Z, 37.98
2022-12-19T08:19:21.465Z, 37.92
2022-12-19T08:20:18.493Z, 37.97
2022-12-19T08:21:18.521Z, 37.94
2022-12-19T08:22:18.559Z, 37.94
2022-12-19T08:23:18.559Z, 37.93
2022-12-19T08:24:18.535Z, 37.90
2022-12-19T08:25:18.542Z, 37.83
2022-12-19T08:26:18.545Z, 37.80
2022-12-19T08:27:18.552Z, 37.82
2022-12-19T08:28:18.579Z, 37.79
2022-12-19T08:29:18.572Z, 37.70
2022-12-19T08:30:18.640Z, 37.70
2022-12-19T08:31:18.699Z, 37.64
2022-12-19T08:32:21.120Z, 37.63
2022-12-19T08:33:18.639Z, 37.62
2022-12-19T08:34:18.690Z, 37.55
2022-12-19T08:35:18.678Z, 37.52
2022-12-19T08:36:18.705Z, 37.47
2022-12-19T08:37:18.700Z, 37.52
2022-12-19T08:38:18.682Z, 37.57
2022-12-19T08:39:18.714Z, 37.55
2022-12-19T08:40:18.727Z, 37.50
2022-12-19T08:41:18.735Z, 37.48
2022-12-19T08:42:18.846Z, 37.52
2022-12-19T08:43:18.820Z, 37.44
2022-12-19T08:44:18.810Z, 37.43
2022-12-19T08:45:18.825Z, 37.43
2022-12-19T08:46:19.059Z, 37.37
2022-12-19T08:47:18.829Z, 37.36
2022-12-19T08:48:18.941Z, 37.28
2022-12-19T08:49:18.821Z, 37.26
2022-12-19T08:50:19.091Z, 37.25
2022-12-19T08:51:18.979Z, 37.21
2022-12-19T08:52:19.085Z, 37.16
2022-12-19T08:53:24.309Z, 37.16
2022-12-19T08:54:19.086Z, 37.11
2022-12-19T08:55:19.090Z, 37.12
2022-12-19T08:56:19.086Z, 37.09
2022-12-19T08:57:19.090Z, 37.04
2022-12-19T08:58:19.092Z, 37.06
2022-12-19T08:59:29.804Z, 37.02
2022-12-19T09:00:19.095Z, 36.99
2022-12-19T09:01:19.458Z, 36.99
2022-12-19T09:02:19.327Z, 36.98
2022-12-19T09:03:19.332Z, 36.91
2022-12-19T09:06:02.486Z, 36.90
2022-12-19T09:06:05.440Z, 36.86
2022-12-19T09:06:19.600Z, 36.88
2022-12-19T09:07:19.276Z, 36.92
2022-12-19T09:08:19.235Z, 36.84
2022-12-19T09:09:19.239Z, 36.81
2022-12-19T09:10:19.247Z, 36.76
2022-12-19T09:11:19.243Z, 36.77
2022-12-19T09:12:19.239Z, 36.75
2022-12-19T09:13:19.382Z, 36.68
2022-12-19T09:14:21.484Z, 36.70
2022-12-19T09:15:19.272Z, 36.72
2022-12-19T09:16:19.369Z, 36.67
2022-12-19T09:17:19.355Z, 36.66
2022-12-19T09:18:19.270Z, 36.63
2022-12-19T09:19:19.277Z, 36.57
2022-12-19T09:20:23.183Z, 36.62
2022-12-19T09:21:19.397Z, 36.63
2022-12-19T09:22:19.391Z, 36.59
2022-12-19T09:23:19.392Z, 36.58
2022-12-19T09:24:19.390Z, 36.55
2022-12-19T09:25:19.391Z, 36.51
2022-12-19T09:26:19.399Z, 36.44
2022-12-19T09:27:19.400Z, 36.37
2022-12-19T09:28:27.915Z, 36.38
2022-12-19T09:29:21.379Z, 36.34
2022-12-19T09:30:19.545Z, 36.31
2022-12-19T09:31:19.570Z, 36.33
2022-12-19T09:32:19.549Z, 36.34
2022-12-19T09:33:19.537Z, 36.33
2022-12-19T09:34:19.539Z, 36.30
2022-12-19T09:35:19.538Z, 36.25
2022-12-19T09:36:19.554Z, 36.28
2022-12-19T09:37:19.543Z, 36.23
2022-12-19T09:38:19.569Z, 36.23
2022-12-19T09:39:19.540Z, 36.23
2022-12-19T09:40:19.706Z, 36.23
2022-12-19T09:41:19.685Z, 36.26
2022-12-19T09:42:19.577Z, 36.19
2022-12-19T09:43:19.691Z, 36.15
2022-12-19T09:44:19.689Z, 36.16
2022-12-19T09:45:31.207Z, 36.13
2022-12-19T09:46:19.754Z, 36.82
2022-12-19T09:47:19.690Z, 42.25
2022-12-19T09:48:23.933Z, 47.47
2022-12-19T09:49:19.691Z, 49.25
2022-12-19T09:50:19.692Z, 51.19
2022-12-19T09:51:19.695Z, 53.07
2022-12-19T09:52:19.731Z, 53.36
2022-12-19T09:53:19.705Z, 50.92
2022-12-19T09:54:19.842Z, 47.40
2022-12-19T09:55:19.717Z, 43.75
2022-12-19T09:56:19.844Z, 38.91
2022-12-19T09:57:19.850Z, 33.65
2022-12-19T09:58:19.838Z, 29.85
2022-12-19T09:59:19.848Z, 31.35
2022-12-19T10:00:19.852Z, 35.33
2022-12-19T10:01:19.939Z, 38.65
2022-12-19T10:02:20.047Z, 40.87
2022-12-19T10:03:20.102Z, 42.66
2022-12-19T10:04:19.867Z, 44.18
2022-12-19T10:06:43.302Z, 45.38
2022-12-19T10:07:11.825Z, 47.74
2022-12-19T10:07:34.296Z, 49.58
2022-12-19T10:08:19.983Z, 49.83
2022-12-19T10:10:16.554Z, 49.59
2022-12-19T10:12:36.160Z, 49.36
2022-12-19T10:12:42.258Z, 49.09
2022-12-19T10:12:44.837Z, 48.86
2022-12-19T10:13:20.015Z, 48.64
2022-12-19T10:14:20.008Z, 48.48
2022-12-19T10:15:20.012Z, 48.27
2022-12-19T10:16:20.059Z, 48.08
2022-12-19T10:17:24.827Z, 47.91
2022-12-19T10:18:20.080Z, 47.75
2022-12-19T10:19:20.018Z, 47.55
2022-12-19T10:20:20.171Z, 47.39
2022-12-19T10:21:20.095Z, 47.19
2022-12-19T10:22:20.075Z, 47.02
2022-12-19T10:23:20.076Z, 46.86
2022-12-19T10:24:20.087Z, 46.70
2022-12-19T10:25:20.090Z, 46.57
2022-12-19T10:26:20.084Z, 46.37
2022-12-19T10:27:20.084Z, 46.20
2022-12-19T10:28:20.260Z, 46.03
2022-12-19T10:29:20.259Z, 45.86
2022-12-19T10:30:20.252Z, 45.67
2022-12-19T10:31:22.368Z, 45.50
2022-12-19T10:32:20.319Z, 45.31
2022-12-19T10:33:21.011Z, 45.13
2022-12-19T10:34:20.288Z, 44.97
2022-12-19T10:35:20.265Z, 44.87
2022-12-19T10:36:20.258Z, 44.73
2022-12-19T10:37:29.004Z, 44.60
2022-12-19T10:38:20.268Z, 44.44
2022-12-19T10:39:20.443Z, 44.33
2022-12-19T10:40:27.956Z, 44.18
2022-12-19T10:41:20.423Z, 44.02
2022-12-19T10:42:20.437Z, 43.90
2022-12-19T10:43:30.627Z, 43.79
2022-12-19T10:44:20.470Z, 43.60
2022-12-19T10:45:20.438Z, 43.43
2022-12-19T10:46:20.442Z, 43.31
2022-12-19T10:47:20.439Z, 43.23
2022-12-19T10:48:20.489Z, 43.11
2022-12-19T10:49:20.453Z, 42.97
2022-12-19T10:50:20.439Z, 42.83
2022-12-19T10:51:20.486Z, 42.73
2022-12-19T10:52:20.450Z, 42.59
2022-12-19T10:53:20.545Z, 42.46
2022-12-19T10:54:20.441Z, 42.33
2022-12-19T10:55:20.621Z, 42.19
2022-12-19T10:56:20.623Z, 42.06
2022-12-19T10:57:20.620Z, 42.03
2022-12-19T10:58:20.803Z, 41.88
2022-12-19T10:59:20.623Z, 41.74
2022-12-19T11:00:20.618Z, 41.64
2022-12-19T11:01:20.944Z, 41.67
2022-12-19T11:02:20.750Z, 43.43
2022-12-19T11:03:20.823Z, 48.78
2022-12-19T11:04:20.640Z, 52.02
2022-12-19T11:05:20.738Z, 53.03
2022-12-19T11:06:20.637Z, 52.53
2022-12-19T11:07:20.827Z, 50.96
2022-12-19T11:08:20.710Z, 49.01
2022-12-19T11:09:20.728Z, 46.80
2022-12-19T11:11:55.013Z, 44.48
2022-12-19T11:14:44.270Z, 42.34
2022-12-19T11:16:10.525Z, 39.95
2022-12-19T11:16:16.122Z, 37.01
2022-12-19T11:18:40.757Z, 33.93
2022-12-19T11:18:50.069Z, 34.42
2022-12-19T11:21:12.797Z, 35.63
2022-12-19T11:27:11.704Z, 38.78
2022-12-19T11:28:03.330Z, 40.08
2022-12-19T11:28:26.796Z, 40.03
2022-12-19T11:28:34.539Z, 39.94
2022-12-19T11:29:30.012Z, 39.51
2022-12-19T11:29:31.802Z, 39.91
2022-12-19T11:29:31.808Z, 39.12
2022-12-19T11:29:45.165Z, 40.09
2022-12-19T11:30:05.173Z, 39.78
2022-12-19T11:30:36.676Z, 39.65
2022-12-19T11:30:43.362Z, 39.27
2022-12-19T11:30:48.001Z, 39.39
2022-12-19T11:31:51.041Z, 39.00
2022-12-19T11:31:51.081Z, 38.84
2022-12-19T11:32:20.534Z, 38.70
2022-12-19T11:32:39.407Z, 38.56
2022-12-19T11:33:21.051Z, 38.44
2022-12-19T11:34:20.992Z, 38.48
2022-12-19T11:35:24.677Z, 37.10
2022-12-19T11:36:20.990Z, 35.42
2022-12-19T11:37:20.998Z, 33.64
2022-12-19T11:38:21.004Z, 32.07
2022-12-19T11:39:21.008Z, 30.66
2022-12-19T11:40:21.009Z, 29.55
2022-12-19T11:41:21.173Z, 28.58
2022-12-19T11:42:21.163Z, 27.86
2022-12-19T11:43:43.793Z, 27.41
2022-12-19T11:44:21.299Z, 27.10
2022-12-19T11:45:21.174Z, 26.84
2022-12-19T11:46:22.270Z, 26.59
2022-12-19T11:47:21.173Z, 26.39
2022-12-19T11:48:21.211Z, 26.18
2022-12-19T11:49:21.169Z, 26.03
2022-12-19T11:50:21.172Z, 25.93
2022-12-19T11:51:21.352Z, 25.85
2022-12-19T11:53:02.491Z, 25.82
2022-12-19T11:53:21.182Z, 25.78
2022-12-19T11:54:21.352Z, 25.74
2022-12-19T11:55:21.225Z, 25.71
2022-12-19T11:56:21.206Z, 25.69
2022-12-19T11:57:21.361Z, 25.65
2022-12-19T11:58:21.357Z, 25.62
2022-12-19T11:59:21.365Z, 25.57
2022-12-19T12:00:21.375Z, 25.54
2022-12-19T12:01:21.445Z, 25.50
2022-12-19T12:02:21.368Z, 25.44
2022-12-19T12:03:21.487Z, 25.39
2022-12-19T12:04:21.441Z, 25.33
2022-12-19T12:05:21.362Z, 25.27
2022-12-19T12:06:24.234Z, 25.19
2022-12-19T12:07:59.098Z, 27.66
2022-12-19T12:09:29.477Z, 34.72
2022-12-19T12:11:36.574Z, 40.39
2022-12-19T12:14:27.879Z, 45.74
2022-12-19T12:15:12.698Z, 43.17
2022-12-19T12:20:06.144Z, 48.38
2022-12-19T12:22:43.757Z, 50.71
2022-12-19T12:25:55.805Z, 55.00
2022-12-19T12:27:14.392Z, 52.91
2022-12-19T12:28:58.550Z, 57.25
2022-12-19T12:30:59.944Z, 57.45
2022-12-19T12:31:02.601Z, 58.49
2022-12-19T12:31:12.017Z, 54.43
2022-12-19T12:31:20.198Z, 52.52
2022-12-19T12:31:21.920Z, 55.96
2022-12-19T12:31:25.893Z, 50.41
2022-12-19T12:31:42.784Z, 42.62
2022-12-19T12:31:47.568Z, 45.57
2022-12-19T12:31:50.787Z, 35.15
2022-12-19T12:31:51.727Z, 37.66
2022-12-19T12:31:58.825Z, 38.85
2022-12-19T12:32:00.732Z, 47.90